sensor_id;sensor_type;location;lat;lon;timestamp;pressure;altitude;pressure_sealevel;temperature;humidity
55759;BME280;41678;52.126;20.664;2023-01-25T00:04:36;102411.00;;;0.80;100.00
55759;BME280;41678;52.126;20.664;2023-01-25T00:09:55;102404.91;;;0.79;100.00
55759;BME280;41678;52.126;20.664;2023-01-25T00:15:14;102401.94;;;0.73;100.00
55759;BME280;41678;52.126;20.664;2023-01-25T00:20:34;102403.25;;;0.66;100.00
55759;BME280;41678;52.126;20.664;2023-01-25T00:25:57;102405.34;;;0.72;100.00
55759;BME280;41678;52.126;20.664;2023-01-25T00:37:23;102408.34;;;0.65;100.00
55759;BME280;41678;52.126;20.664;2023-01-25T00:42:43;102400.19;;;0.59;100.00
55759;BME280;41678;52.126;20.664;2023-01-25T00:48:03;102396.47;;;0.68;100.00
55759;BME280;41678;52.126;20.664;2023-01-25T00:53:24;102389.50;;;0.54;100.00
55759;BME280;41678;52.126;20.664;2023-01-25T00:58:44;102389.13;;;0.48;100.00
55759;BME280;41678;52.126;20.664;2023-01-25T01:04:05;102383.44;;;0.53;100.00
55759;BME280;41678;52.126;20.664;2023-01-25T01:09:25;102381.84;;;0.55;100.00
55759;BME280;41678;52.126;20.664;2023-01-25T01:14:45;102378.53;;;0.45;100.00
55759;BME280;41678;52.126;20.664;2023-01-25T01:20:05;102382.75;;;0.42;100.00
55759;BME280;41678;52.126;20.664;2023-01-25T01:25:25;102368.59;;;0.37;100.00
55759;BME280;41678;52.126;20.664;2023-01-25T01:30:45;102361.22;;;0.30;100.00
55759;BME280;41678;52.126;20.664;2023-01-25T01:36:15;102367.13;;;0.27;100.00
55759;BME280;41678;52.126;20.664;2023-01-25T01:41:36;102368.72;;;0.25;100.00
55759;BME280;41678;52.126;20.664;2023-01-25T01:46:57;102357.25;;;0.22;100.00
55759;BME280;41678;52.126;20.664;2023-01-25T01:52:30;102352.25;;;0.25;100.00
55759;BME280;41678;52.126;20.664;2023-01-25T01:57:54;102346.50;;;0.16;100.00
55759;BME280;41678;52.126;20.664;2023-01-25T02:03:17;102354.47;;;0.05;100.00
55759;BME280;41678;52.126;20.664;2023-01-25T02:08:37;102357.16;;;0.07;100.00
55759;BME280;41678;52.126;20.664;2023-01-25T02:14:01;102354.38;;;0.04;100.00
55759;BME280;41678;52.126;20.664;2023-01-25T02:19:42;102359.47;;;0.02;100.00
55759;BME280;41678;52.126;20.664;2023-01-25T02:25:09;102353.56;;;0.05;100.00
55759;BME280;41678;52.126;20.664;2023-01-25T02:30:29;102345.53;;;0.00;100.00
55759;BME280;41678;52.126;20.664;2023-01-25T02:35:55;102341.84;;;-0.04;100.00
55759;BME280;41678;52.126;20.664;2023-01-25T02:41:24;102322.41;;;-0.10;100.00
55759;BME280;41678;52.126;20.664;2023-01-25T02:46:45;102322.00;;;-0.17;100.00
55759;BME280;41678;52.126;20.664;2023-01-25T02:52:07;102318.50;;;-0.17;100.00
55759;BME280;41678;52.126;20.664;2023-01-25T02:57:27;102323.00;;;-0.15;100.00
55759;BME280;41678;52.126;20.664;2023-01-25T03:02:46;102316.22;;;-0.12;100.00
55759;BME280;41678;52.126;20.664;2023-01-25T03:08:05;102314.03;;;-0.20;100.00
55759;BME280;41678;52.126;20.664;2023-01-25T03:13:26;102308.47;;;-0.26;100.00
55759;BME280;41678;52.126;20.664;2023-01-25T03:18:47;102294.22;;;-0.19;100.00
55759;BME280;41678;52.126;20.664;2023-01-25T03:24:09;102286.34;;;-0.21;100.00
55759;BME280;41678;52.126;20.664;2023-01-25T03:29:34;102272.81;;;-0.30;100.00
55759;BME280;41678;52.126;20.664;2023-01-25T03:34:55;102277.28;;;-0.27;100.00
55759;BME280;41678;52.126;20.664;2023-01-25T03:40:18;102276.16;;;-0.31;100.00
55759;BME280;41678;52.126;20.664;2023-01-25T03:45:42;102275.09;;;-0.35;100.00
55759;BME280;41678;52.126;20.664;2023-01-25T03:51:02;102260.44;;;-0.34;100.00
55759;BME280;41678;52.126;20.664;2023-01-25T03:56:22;102266.63;;;-0.32;100.00
55759;BME280;41678;52.126;20.664;2023-01-25T04:01:53;102267.91;;;-0.39;100.00
55759;BME280;41678;52.126;20.664;2023-01-25T04:07:13;102257.66;;;-0.37;100.00
55759;BME280;41678;52.126;20.664;2023-01-25T04:12:33;102257.38;;;-0.42;100.00
55759;BME280;41678;52.126;20.664;2023-01-25T04:17:53;102232.19;;;-0.45;100.00
55759;BME280;41678;52.126;20.664;2023-01-25T04:23:15;102247.31;;;-0.51;100.00
55759;BME280;41678;52.126;20.664;2023-01-25T04:28:37;102238.38;;;-0.56;100.00
55759;BME280;41678;52.126;20.664;2023-01-25T04:33:57;102244.34;;;-0.57;100.00
55759;BME280;41678;52.126;20.664;2023-01-25T04:39:18;102249.09;;;-0.63;100.00
55759;BME280;41678;52.126;20.664;2023-01-25T04:44:37;102243.13;;;-0.62;100.00
55759;BME280;41678;52.126;20.664;2023-01-25T04:49:57;102225.53;;;-0.68;100.00
55759;BME280;41678;52.126;20.664;2023-01-25T04:55:22;102215.66;;;-0.74;100.00
55759;BME280;41678;52.126;20.664;2023-01-25T05:00:43;102234.56;;;-0.75;100.00
55759;BME280;41678;52.126;20.664;2023-01-25T05:06:04;102229.16;;;-0.78;100.00
55759;BME280;41678;52.126;20.664;2023-01-25T05:11:24;102234.16;;;-0.81;100.00
55759;BME280;41678;52.126;20.664;2023-01-25T05:16:57;102229.75;;;-0.82;100.00
55759;BME280;41678;52.126;20.664;2023-01-25T05:22:17;102233.16;;;-0.83;100.00
55759;BME280;41678;52.126;20.664;2023-01-25T05:27:41;102236.53;;;-0.84;100.00
55759;BME280;41678;52.126;20.664;2023-01-25T05:33:21;102233.53;;;-0.77;100.00
55759;BME280;41678;52.126;20.664;2023-01-25T05:38:42;102229.94;;;-0.92;100.00
55759;BME280;41678;52.126;20.664;2023-01-25T05:44:03;102223.41;;;-0.87;100.00
55759;BME280;41678;52.126;20.664;2023-01-25T05:49:24;102216.00;;;-0.94;100.00
55759;BME280;41678;52.126;20.664;2023-01-25T05:54:44;102226.28;;;-0.96;100.00
55759;BME280;41678;52.126;20.664;2023-01-25T06:00:06;102220.47;;;-1.05;100.00
55759;BME280;41678;52.126;20.664;2023-01-25T06:05:32;102218.00;;;-1.04;100.00
55759;BME280;41678;52.126;20.664;2023-01-25T06:10:52;102207.94;;;-1.12;100.00
55759;BME280;41678;52.126;20.664;2023-01-25T06:16:12;102192.50;;;-1.11;100.00
55759;BME280;41678;52.126;20.664;2023-01-25T06:21:35;102197.09;;;-1.07;100.00
55759;BME280;41678;52.126;20.664;2023-01-25T06:26:55;102192.44;;;-1.12;100.00
55759;BME280;41678;52.126;20.664;2023-01-25T06:32:14;102193.31;;;-1.12;100.00
55759;BME280;41678;52.126;20.664;2023-01-25T06:37:34;102199.88;;;-1.17;100.00
55759;BME280;41678;52.126;20.664;2023-01-25T06:42:53;102193.13;;;-1.15;100.00
55759;BME280;41678;52.126;20.664;2023-01-25T06:48:13;102192.47;;;-1.24;100.00
55759;BME280;41678;52.126;20.664;2023-01-25T06:53:35;102190.94;;;-1.09;100.00
55759;BME280;41678;52.126;20.664;2023-01-25T06:58:55;102189.22;;;-1.22;100.00
55759;BME280;41678;52.126;20.664;2023-01-25T07:04:15;102176.41;;;-1.20;100.00
55759;BME280;41678;52.126;20.664;2023-01-25T07:09:35;102177.41;;;-1.18;100.00
55759;BME280;41678;52.126;20.664;2023-01-25T07:14:55;102167.53;;;-1.24;100.00
55759;BME280;41678;52.126;20.664;2023-01-25T07:20:15;102170.81;;;-1.26;100.00
55759;BME280;41678;52.126;20.664;2023-01-25T07:25:35;102159.69;;;-1.25;100.00
55759;BME280;41678;52.126;20.664;2023-01-25T07:30:54;102160.78;;;-1.22;100.00
55759;BME280;41678;52.126;20.664;2023-01-25T07:36:16;102148.53;;;-1.24;100.00
55759;BME280;41678;52.126;20.664;2023-01-25T07:41:36;102151.25;;;-1.23;100.00
55759;BME280;41678;52.126;20.664;2023-01-25T07:46:56;102153.41;;;-1.29;100.00
55759;BME280;41678;52.126;20.664;2023-01-25T07:52:16;102151.84;;;-1.27;100.00
55759;BME280;41678;52.126;20.664;2023-01-25T07:57:35;102152.72;;;-1.26;100.00
55759;BME280;41678;52.126;20.664;2023-01-25T08:02:55;102146.56;;;-1.29;100.00
55759;BME280;41678;52.126;20.664;2023-01-25T08:15:41;102144.44;;;-1.34;100.00
55759;BME280;41678;52.126;20.664;2023-01-25T08:21:00;102141.19;;;-1.32;100.00
55759;BME280;41678;52.126;20.664;2023-01-25T08:26:20;102130.53;;;-1.36;100.00
55759;BME280;41678;52.126;20.664;2023-01-25T08:31:40;102121.31;;;-1.33;100.00
55759;BME280;41678;52.126;20.664;2023-01-25T08:37:02;102119.72;;;-1.31;100.00
55759;BME280;41678;52.126;20.664;2023-01-25T08:42:22;102114.38;;;-1.20;100.00
55759;BME280;41678;52.126;20.664;2023-01-25T08:47:42;102114.16;;;-1.23;100.00
55759;BME280;41678;52.126;20.664;2023-01-25T08:53:02;102118.50;;;-1.22;100.00
55759;BME280;41678;52.126;20.664;2023-01-25T08:58:21;102108.09;;;-1.24;100.00
55759;BME280;41678;52.126;20.664;2023-01-25T09:03:43;102113.56;;;-1.19;100.00
55759;BME280;41678;52.126;20.664;2023-01-25T09:09:03;102099.84;;;-1.18;100.00
55759;BME280;41678;52.126;20.664;2023-01-25T09:14:23;102101.22;;;-1.23;100.00
55759;BME280;41678;52.126;20.664;2023-01-25T09:19:42;102093.88;;;-1.31;100.00
55759;BME280;41678;52.126;20.664;2023-01-25T09:25:03;102097.94;;;-1.21;100.00
55759;BME280;41678;52.126;20.664;2023-01-25T09:30:23;102089.81;;;-1.13;100.00
55759;BME280;41678;52.126;20.664;2023-01-25T09:35:47;102082.06;;;-1.13;100.00
55759;BME280;41678;52.126;20.664;2023-01-25T09:47:05;102059.88;;;-1.23;100.00
55759;BME280;41678;52.126;20.664;2023-01-25T09:58:17;102055.72;;;-1.21;100.00
55759;BME280;41678;52.126;20.664;2023-01-25T10:03:44;102056.09;;;-1.15;100.00
55759;BME280;41678;52.126;20.664;2023-01-25T10:14:54;102028.03;;;-1.09;100.00
55759;BME280;41678;52.126;20.664;2023-01-25T10:25:45;102017.50;;;-1.12;100.00
55759;BME280;41678;52.126;20.664;2023-01-25T10:31:43;102019.31;;;-1.11;100.00
55759;BME280;41678;52.126;20.664;2023-01-25T10:37:27;102008.47;;;-1.19;100.00
55759;BME280;41678;52.126;20.664;2023-01-25T10:42:57;101995.03;;;-1.13;100.00
55759;BME280;41678;52.126;20.664;2023-01-25T10:48:33;101985.22;;;-1.19;100.00
55759;BME280;41678;52.126;20.664;2023-01-25T10:54:00;101983.28;;;-1.08;100.00
55759;BME280;41678;52.126;20.664;2023-01-25T10:59:26;101966.59;;;-1.00;100.00
55759;BME280;41678;52.126;20.664;2023-01-25T11:04:46;101964.81;;;-1.01;100.00
55759;BME280;41678;52.126;20.664;2023-01-25T11:10:27;101955.34;;;-1.00;100.00
55759;BME280;41678;52.126;20.664;2023-01-25T11:15:53;101951.88;;;-1.01;100.00
55759;BME280;41678;52.126;20.664;2023-01-25T11:21:22;101941.25;;;-1.05;100.00
55759;BME280;41678;52.126;20.664;2023-01-25T11:26:44;101929.47;;;-1.00;100.00
55759;BME280;41678;52.126;20.664;2023-01-25T11:32:13;101915.84;;;-0.97;100.00
55759;BME280;41678;52.126;20.664;2023-01-25T11:37:45;101919.13;;;-1.00;100.00
55759;BME280;41678;52.126;20.664;2023-01-25T11:49:10;101912.59;;;-0.95;100.00
55759;BME280;41678;52.126;20.664;2023-01-25T12:00:35;101907.59;;;-0.92;100.00
55759;BME280;41678;52.126;20.664;2023-01-25T12:11:56;101881.38;;;-0.98;100.00
55759;BME280;41678;52.126;20.664;2023-01-25T12:17:28;101872.09;;;-0.94;100.00
55759;BME280;41678;52.126;20.664;2023-01-25T12:28:42;101844.56;;;-0.79;100.00
55759;BME280;41678;52.126;20.664;2023-01-25T12:34:26;101829.09;;;-0.92;100.00
55759;BME280;41678;52.126;20.664;2023-01-25T12:45:13;101834.66;;;-0.86;100.00
55759;BME280;41678;52.126;20.664;2023-01-25T12:55:54;101828.00;;;-0.82;100.00
55759;BME280;41678;52.126;20.664;2023-01-25T13:01:27;101817.91;;;-0.78;100.00
55759;BME280;41678;52.126;20.664;2023-01-25T13:07:12;101823.97;;;-0.77;100.00
55759;BME280;41678;52.126;20.664;2023-01-25T13:13:18;101819.69;;;-0.77;100.00
55759;BME280;41678;52.126;20.664;2023-01-25T13:18:39;101813.06;;;-0.87;100.00
55759;BME280;41678;52.126;20.664;2023-01-25T13:34:59;101811.56;;;-0.83;100.00
55759;BME280;41678;52.126;20.664;2023-01-25T13:45:49;101790.78;;;-0.84;100.00
55759;BME280;41678;52.126;20.664;2023-01-25T13:51:13;101780.88;;;-0.77;100.00
55759;BME280;41678;52.126;20.664;2023-01-25T13:56:34;101767.44;;;-0.86;100.00
55759;BME280;41678;52.126;20.664;2023-01-25T14:01:54;101764.09;;;-0.83;100.00
55759;BME280;41678;52.126;20.664;2023-01-25T14:07:29;101753.75;;;-0.83;100.00
55759;BME280;41678;52.126;20.664;2023-01-25T14:12:53;101754.56;;;-0.84;100.00
55759;BME280;41678;52.126;20.664;2023-01-25T14:18:18;101747.00;;;-0.96;100.00
55759;BME280;41678;52.126;20.664;2023-01-25T14:23:38;101742.97;;;-0.91;100.00
55759;BME280;41678;52.126;20.664;2023-01-25T14:28:58;101739.06;;;-1.00;100.00
55759;BME280;41678;52.126;20.664;2023-01-25T14:34:25;101733.25;;;-0.95;100.00
55759;BME280;41678;52.126;20.664;2023-01-25T14:39:46;101728.88;;;-0.96;100.00
55759;BME280;41678;52.126;20.664;2023-01-25T14:45:11;101720.84;;;-1.01;100.00
55759;BME280;41678;52.126;20.664;2023-01-25T14:50:37;101714.19;;;-0.97;100.00
55759;BME280;41678;52.126;20.664;2023-01-25T14:55:58;101706.25;;;-1.01;100.00
55759;BME280;41678;52.126;20.664;2023-01-25T15:01:28;101699.81;;;-0.92;100.00
55759;BME280;41678;52.126;20.664;2023-01-25T15:06:50;101704.19;;;-0.91;100.00
55759;BME280;41678;52.126;20.664;2023-01-25T15:12:22;101688.66;;;-0.91;100.00
55759;BME280;41678;52.126;20.664;2023-01-25T15:17:47;101681.81;;;-0.91;100.00
55759;BME280;41678;52.126;20.664;2023-01-25T15:28:37;101665.75;;;-1.00;100.00
55759;BME280;41678;52.126;20.664;2023-01-25T15:33:57;101666.13;;;-1.09;100.00
55759;BME280;41678;52.126;20.664;2023-01-25T15:39:18;101657.38;;;-1.11;100.00
55759;BME280;41678;52.126;20.664;2023-01-25T15:44:38;101651.22;;;-1.13;100.00
55759;BME280;41678;52.126;20.664;2023-01-25T15:49:57;101647.78;;;-1.13;100.00
55759;BME280;41678;52.126;20.664;2023-01-25T15:55:17;101648.47;;;-1.16;100.00
55759;BME280;41678;52.126;20.664;2023-01-25T16:00:37;101638.13;;;-1.16;100.00
55759;BME280;41678;52.126;20.664;2023-01-25T16:06:04;101638.66;;;-1.22;100.00
55759;BME280;41678;52.126;20.664;2023-01-25T16:11:26;101636.19;;;-1.20;100.00
55759;BME280;41678;52.126;20.664;2023-01-25T16:16:48;101636.97;;;-1.06;100.00
55759;BME280;41678;52.126;20.664;2023-01-25T16:22:07;101624.75;;;-1.09;100.00
55759;BME280;41678;52.126;20.664;2023-01-25T16:27:27;101604.28;;;-1.06;100.00
55759;BME280;41678;52.126;20.664;2023-01-25T16:32:54;101608.50;;;-0.91;100.00
55759;BME280;41678;52.126;20.664;2023-01-25T16:38:13;101604.13;;;-0.92;100.00
55759;BME280;41678;52.126;20.664;2023-01-25T16:43:32;101596.84;;;-1.00;100.00
55759;BME280;41678;52.126;20.664;2023-01-25T16:48:52;101589.72;;;-1.04;100.00
55759;BME280;41678;52.126;20.664;2023-01-25T16:54:15;101583.75;;;-1.03;100.00
55759;BME280;41678;52.126;20.664;2023-01-25T16:59:34;101566.63;;;-1.01;100.00
55759;BME280;41678;52.126;20.664;2023-01-25T17:04:54;101565.19;;;-0.95;100.00
55759;BME280;41678;52.126;20.664;2023-01-25T17:10:14;101562.34;;;-1.00;100.00
55759;BME280;41678;52.126;20.664;2023-01-25T17:15:33;101538.63;;;-1.08;100.00
55759;BME280;41678;52.126;20.664;2023-01-25T17:21:02;101545.16;;;-1.00;100.00
55759;BME280;41678;52.126;20.664;2023-01-25T17:26:22;101533.84;;;-1.02;100.00
55759;BME280;41678;52.126;20.664;2023-01-25T17:31:42;101538.03;;;-1.04;100.00
55759;BME280;41678;52.126;20.664;2023-01-25T17:37:02;101533.66;;;-1.05;100.00
55759;BME280;41678;52.126;20.664;2023-01-25T17:42:21;101532.06;;;-1.03;100.00
55759;BME280;41678;52.126;20.664;2023-01-25T17:47:41;101515.72;;;-1.02;100.00
55759;BME280;41678;52.126;20.664;2023-01-25T17:53:01;101520.34;;;-0.96;100.00
55759;BME280;41678;52.126;20.664;2023-01-25T17:58:21;101510.88;;;-0.95;100.00
55759;BME280;41678;52.126;20.664;2023-01-25T18:03:42;101505.97;;;-0.91;100.00
55759;BME280;41678;52.126;20.664;2023-01-25T18:09:03;101489.75;;;-0.88;100.00
55759;BME280;41678;52.126;20.664;2023-01-25T18:14:24;101490.88;;;-0.83;100.00
55759;BME280;41678;52.126;20.664;2023-01-25T18:19:44;101488.69;;;-0.92;100.00
55759;BME280;41678;52.126;20.664;2023-01-25T18:25:06;101502.47;;;-0.91;100.00
55759;BME280;41678;52.126;20.664;2023-01-25T18:30:33;101500.47;;;-0.97;100.00
55759;BME280;41678;52.126;20.664;2023-01-25T18:35:55;101496.81;;;-1.01;100.00
55759;BME280;41678;52.126;20.664;2023-01-25T18:41:24;101502.72;;;-1.03;100.00
55759;BME280;41678;52.126;20.664;2023-01-25T18:46:44;101490.53;;;-1.06;100.00
55759;BME280;41678;52.126;20.664;2023-01-25T18:52:05;101493.34;;;-1.01;100.00
55759;BME280;41678;52.126;20.664;2023-01-25T18:57:35;101474.28;;;-1.03;100.00
55759;BME280;41678;52.126;20.664;2023-01-25T19:02:54;101481.63;;;-0.94;100.00
55759;BME280;41678;52.126;20.664;2023-01-25T19:08:14;101473.81;;;-0.96;100.00
55759;BME280;41678;52.126;20.664;2023-01-25T19:13:35;101466.06;;;-0.96;100.00
55759;BME280;41678;52.126;20.664;2023-01-25T19:19:00;101463.53;;;-0.94;100.00
55759;BME280;41678;52.126;20.664;2023-01-25T19:24:20;101462.50;;;-0.98;100.00
55759;BME280;41678;52.126;20.664;2023-01-25T19:29:40;101448.78;;;-0.97;100.00
55759;BME280;41678;52.126;20.664;2023-01-25T19:34:59;101442.78;;;-0.96;100.00
55759;BME280;41678;52.126;20.664;2023-01-25T19:40:19;101452.38;;;-0.93;100.00
55759;BME280;41678;52.126;20.664;2023-01-25T19:45:38;101433.66;;;-0.89;100.00
55759;BME280;41678;52.126;20.664;2023-01-25T19:51:05;101430.03;;;-0.93;100.00
55759;BME280;41678;52.126;20.664;2023-01-25T19:56:27;101432.88;;;-0.88;100.00
55759;BME280;41678;52.126;20.664;2023-01-25T20:01:48;101422.31;;;-0.91;100.00
55759;BME280;41678;52.126;20.664;2023-01-25T20:07:07;101410.81;;;-0.98;100.00
55759;BME280;41678;52.126;20.664;2023-01-25T20:12:26;101401.47;;;-0.94;100.00
55759;BME280;41678;52.126;20.664;2023-01-25T20:17:46;101392.03;;;-0.94;100.00
55759;BME280;41678;52.126;20.664;2023-01-25T20:23:05;101386.31;;;-0.88;100.00
55759;BME280;41678;52.126;20.664;2023-01-25T20:28:25;101393.16;;;-0.89;100.00
55759;BME280;41678;52.126;20.664;2023-01-25T20:33:45;101370.47;;;-0.94;100.00
55759;BME280;41678;52.126;20.664;2023-01-25T20:39:06;101373.28;;;-0.90;100.00
55759;BME280;41678;52.126;20.664;2023-01-25T20:44:26;101372.22;;;-0.93;100.00
55759;BME280;41678;52.126;20.664;2023-01-25T20:49:46;101366.66;;;-0.84;100.00
55759;BME280;41678;52.126;20.664;2023-01-25T20:55:06;101372.44;;;-0.90;100.00
55759;BME280;41678;52.126;20.664;2023-01-25T21:00:26;101369.03;;;-0.89;100.00
55759;BME280;41678;52.126;20.664;2023-01-25T21:05:54;101364.66;;;-0.90;100.00
55759;BME280;41678;52.126;20.664;2023-01-25T21:11:14;101361.19;;;-0.91;100.00
55759;BME280;41678;52.126;20.664;2023-01-25T21:16:34;101360.22;;;-0.93;100.00
55759;BME280;41678;52.126;20.664;2023-01-25T21:21:53;101350.75;;;-0.92;100.00
55759;BME280;41678;52.126;20.664;2023-01-25T21:27:13;101360.28;;;-0.91;100.00
55759;BME280;41678;52.126;20.664;2023-01-25T21:32:32;101358.75;;;-0.88;100.00
55759;BME280;41678;52.126;20.664;2023-01-25T21:37:52;101347.44;;;-0.90;100.00
55759;BME280;41678;52.126;20.664;2023-01-25T21:43:11;101351.75;;;-0.90;100.00
55759;BME280;41678;52.126;20.664;2023-01-25T21:48:31;101342.91;;;-0.94;100.00
55759;BME280;41678;52.126;20.664;2023-01-25T21:54:09;101335.16;;;-0.94;100.00
55759;BME280;41678;52.126;20.664;2023-01-25T21:59:29;101328.38;;;-0.92;100.00
55759;BME280;41678;52.126;20.664;2023-01-25T22:04:48;101327.47;;;-0.92;100.00
55759;BME280;41678;52.126;20.664;2023-01-25T22:10:08;101325.88;;;-0.90;100.00
55759;BME280;41678;52.126;20.664;2023-01-25T22:15:28;101327.97;;;-0.83;100.00
55759;BME280;41678;52.126;20.664;2023-01-25T22:20:55;101326.19;;;-0.84;100.00
55759;BME280;41678;52.126;20.664;2023-01-25T22:26:16;101314.88;;;-0.86;100.00
55759;BME280;41678;52.126;20.664;2023-01-25T22:31:37;101314.13;;;-0.83;100.00
55759;BME280;41678;52.126;20.664;2023-01-25T22:36:56;101308.75;;;-0.88;100.00
55759;BME280;41678;52.126;20.664;2023-01-25T22:42:16;101300.19;;;-0.87;100.00
55759;BME280;41678;52.126;20.664;2023-01-25T22:47:35;101300.31;;;-0.84;100.00
55759;BME280;41678;52.126;20.664;2023-01-25T22:52:54;101294.44;;;-0.81;100.00
55759;BME280;41678;52.126;20.664;2023-01-25T22:58:14;101284.81;;;-0.84;100.00
55759;BME280;41678;52.126;20.664;2023-01-25T23:03:33;101286.72;;;-0.80;100.00
55759;BME280;41678;52.126;20.664;2023-01-25T23:08:57;101280.75;;;-0.79;100.00
55759;BME280;41678;52.126;20.664;2023-01-25T23:14:21;101268.63;;;-0.80;100.00
55759;BME280;41678;52.126;20.664;2023-01-25T23:19:59;101253.13;;;-0.80;100.00
55759;BME280;41678;52.126;20.664;2023-01-25T23:25:19;101230.66;;;-0.81;100.00
55759;BME280;41678;52.126;20.664;2023-01-25T23:30:38;101228.31;;;-0.76;100.00
55759;BME280;41678;52.126;20.664;2023-01-25T23:36:06;101235.34;;;-0.74;100.00
55759;BME280;41678;52.126;20.664;2023-01-25T23:41:28;101221.59;;;-0.73;100.00
55759;BME280;41678;52.126;20.664;2023-01-25T23:46:48;101217.97;;;-0.76;100.00
55759;BME280;41678;52.126;20.664;2023-01-25T23:52:08;101223.22;;;-0.75;100.00
55759;BME280;41678;52.126;20.664;2023-01-25T23:57:28;101211.09;;;-0.76;100.00
